EJU5367 EDDB-LCLK
Flight info
| Callsign | EJU5367 |
|---|---|
| Flight time | N/A |
| Altitude | 35000 |
| Route | ARSAP3Q ARSAP DCT OLUMA DCT KULUV DCT MAKAL DCT PARAK DCT OBLAK DCT NISVA DCT DOTAM DCT NIKTI DCT STINO DCT AKINA DCT LINRO UL52 VAXOS UM978 TOSKA DCT BONEK |
| Aircraft | A320/M-SDE2E3FGHIJ1RWXYZ/LB1 |
Departure
| Time | N/A |
|---|---|
| Airport | Berlin Brandenburg Airport (EDDB) |
Arrival
| Time | 2026-05-07 15:09 |
|---|---|
| Airport | Larnaca International Airport (LCLK) |
| Time | Latitude | Longitude | Altitude | Speed | Heading |
|---|---|---|---|---|---|
| 2026-05-07 15:03 | 34.87723 | 33.65219 | 5881 ft | 273 kts | 75° |
| 2026-05-07 15:03 | 34.88096 | 33.67452 | 5435 ft | 273 kts | 75° |
| 2026-05-07 15:03 | 34.88469 | 33.69711 | 4940 ft | 269 kts | 76° |
| 2026-05-07 15:04 | 34.88842 | 33.71938 | 4408 ft | 267 kts | 75° |
| 2026-05-07 15:04 | 34.89220 | 33.74129 | 3886 ft | 260 kts | 73° |
| 2026-05-07 15:04 | 34.89764 | 33.76187 | 3363 ft | 251 kts | 66° |
| 2026-05-07 15:04 | 34.90495 | 33.78062 | 2836 ft | 241 kts | 51° |
| 2026-05-07 15:05 | 34.91706 | 33.79394 | 2312 ft | 232 kts | 26° |
| 2026-05-07 15:05 | 34.93220 | 33.79801 | 2035 ft | 220 kts | 359° |
| 2026-05-07 15:05 | 34.94748 | 33.79666 | 1855 ft | 220 kts | 344° |
| 2026-05-07 15:05 | 34.96044 | 33.78735 | 1541 ft | 218 kts | 313° |
| 2026-05-07 15:06 | 34.96806 | 33.77218 | 1500 ft | 205 kts | 288° |
| 2026-05-07 15:06 | 34.96976 | 33.75533 | 1501 ft | 199 kts | 265° |
| 2026-05-07 15:06 | 34.96591 | 33.73929 | 1503 ft | 198 kts | 242° |
| 2026-05-07 15:06 | 34.95733 | 33.72625 | 1515 ft | 198 kts | 226° |
| 2026-05-07 15:07 | 34.94765 | 33.71442 | 1538 ft | 195 kts | 226° |
| 2026-05-07 15:07 | 34.93852 | 33.70324 | 1427 ft | 177 kts | 226° |
| 2026-05-07 15:07 | 34.93006 | 33.69288 | 1265 ft | 169 kts | 226° |
| 2026-05-07 15:07 | 34.92189 | 33.68287 | 1068 ft | 164 kts | 226° |
| 2026-05-07 15:08 | 34.91395 | 33.67314 | 867 ft | 157 kts | 224° |
| 2026-05-07 15:08 | 34.90645 | 33.66397 | 687 ft | 149 kts | 224° |
| 2026-05-07 15:08 | 34.89920 | 33.65510 | 508 ft | 146 kts | 224° |
| 2026-05-07 15:08 | 34.89206 | 33.64646 | 321 ft | 145 kts | 224° |
| 2026-05-07 15:09 | 34.88495 | 33.63771 | 139 ft | 145 kts | 224° |
| 2026-05-07 15:09 | 34.87806 | 33.62923 | 30 ft | 135 kts | 225° |
| 2026-05-07 15:09 | 34.87255 | 33.62250 | 21 ft | 87 kts | 225° |
| 2026-05-07 15:09 | 34.86996 | 33.61896 | 22 ft | 31 kts | 242° |
| 2026-05-07 15:10 | 34.86944 | 33.61691 | 23 ft | 17 kts | 256° |
| 2026-05-07 15:10 | 34.86918 | 33.61570 | 23 ft | 4 kts | 255° |
| 2026-05-07 15:10 | 34.86911 | 33.61542 | 21 ft | 3 kts | 254° |
| 2026-05-07 15:10 | 34.86901 | 33.61495 | 23 ft | 8 kts | 254° |
| 2026-05-07 15:11 | 34.86885 | 33.61430 | 22 ft | 9 kts | 253° |
| 2026-05-07 15:11 | 34.86894 | 33.61355 | 23 ft | 9 kts | 291° |
| 2026-05-07 15:11 | 34.86872 | 33.61284 | 20 ft | 12 kts | 224° |
| 2026-05-07 15:11 | 34.86804 | 33.61203 | 20 ft | 15 kts | 225° |
| 2026-05-07 15:12 | 34.86735 | 33.61120 | 21 ft | 12 kts | 224° |
| 2026-05-07 15:12 | 34.86693 | 33.61030 | 21 ft | 13 kts | 272° |
| 2026-05-07 15:12 | 34.86749 | 33.60980 | 20 ft | 10 kts | 57° |
| 2026-05-07 15:12 | 34.86793 | 33.61045 | 22 ft | 6 kts | 50° |
| 2026-05-07 15:13 | 34.86798 | 33.61052 | 21 ft | 0 kts | 51° |
| 2026-05-07 15:13 | 34.86793 | 33.61045 | 22 ft | 0 kts | 50° |